sensor_id;sensor_type;location;lat;lon;timestamp;P1;durP1;ratioP1;P2;durP2;ratioP2
18612;SDS011;9436;52.152;21.032;2023-03-01T00:01:29;83.60;;;50.37;;
18612;SDS011;9436;52.152;21.032;2023-03-01T00:03:58;79.33;;;47.43;;
18612;SDS011;9436;52.152;21.032;2023-03-01T00:06:26;82.70;;;48.27;;
18612;SDS011;9436;52.152;21.032;2023-03-01T00:08:54;76.17;;;46.23;;
18612;SDS011;9436;52.152;21.032;2023-03-01T00:11:22;75.60;;;47.50;;
18612;SDS011;9436;52.152;21.032;2023-03-01T00:13:51;79.47;;;47.37;;
18612;SDS011;9436;52.152;21.032;2023-03-01T00:16:21;74.77;;;46.27;;
18612;SDS011;9436;52.152;21.032;2023-03-01T00:18:50;74.90;;;45.63;;
18612;SDS011;9436;52.152;21.032;2023-03-01T00:21:18;76.93;;;46.20;;
18612;SDS011;9436;52.152;21.032;2023-03-01T00:23:47;74.10;;;45.17;;
18612;SDS011;9436;52.152;21.032;2023-03-01T00:26:15;71.77;;;45.53;;
18612;SDS011;9436;52.152;21.032;2023-03-01T00:28:43;72.80;;;43.20;;
18612;SDS011;9436;52.152;21.032;2023-03-01T00:31:11;71.50;;;44.23;;
18612;SDS011;9436;52.152;21.032;2023-03-01T00:33:39;71.63;;;44.00;;
18612;SDS011;9436;52.152;21.032;2023-03-01T00:36:07;70.37;;;41.57;;
18612;SDS011;9436;52.152;21.032;2023-03-01T00:38:37;74.83;;;42.80;;
18612;SDS011;9436;52.152;21.032;2023-03-01T00:41:05;69.27;;;42.83;;
18612;SDS011;9436;52.152;21.032;2023-03-01T00:43:32;67.37;;;42.00;;
18612;SDS011;9436;52.152;21.032;2023-03-01T00:46:01;66.93;;;40.73;;
18612;SDS011;9436;52.152;21.032;2023-03-01T00:48:29;71.07;;;43.17;;
18612;SDS011;9436;52.152;21.032;2023-03-01T00:50:56;66.40;;;40.50;;
18612;SDS011;9436;52.152;21.032;2023-03-01T00:53:23;61.07;;;39.77;;
18612;SDS011;9436;52.152;21.032;2023-03-01T00:55:51;64.00;;;40.03;;
18612;SDS011;9436;52.152;21.032;2023-03-01T00:58:19;64.70;;;40.33;;
18612;SDS011;9436;52.152;21.032;2023-03-01T01:00:46;66.27;;;39.00;;
18612;SDS011;9436;52.152;21.032;2023-03-01T01:03:13;62.90;;;40.17;;
18612;SDS011;9436;52.152;21.032;2023-03-01T01:05:40;63.83;;;38.50;;
18612;SDS011;9436;52.152;21.032;2023-03-01T01:08:07;61.87;;;38.40;;
18612;SDS011;9436;52.152;21.032;2023-03-01T01:10:34;61.63;;;38.23;;
18612;SDS011;9436;52.152;21.032;2023-03-01T01:13:03;61.70;;;38.23;;
18612;SDS011;9436;52.152;21.032;2023-03-01T01:15:33;63.73;;;39.00;;
18612;SDS011;9436;52.152;21.032;2023-03-01T01:18:00;62.03;;;37.73;;
18612;SDS011;9436;52.152;21.032;2023-03-01T01:20:27;61.00;;;38.70;;
18612;SDS011;9436;52.152;21.032;2023-03-01T01:22:55;61.33;;;38.80;;
18612;SDS011;9436;52.152;21.032;2023-03-01T01:25:22;67.47;;;39.73;;
18612;SDS011;9436;52.152;21.032;2023-03-01T01:27:50;67.63;;;38.77;;
18612;SDS011;9436;52.152;21.032;2023-03-01T01:30:18;61.50;;;37.70;;
18612;SDS011;9436;52.152;21.032;2023-03-01T01:32:45;61.30;;;37.93;;
18612;SDS011;9436;52.152;21.032;2023-03-01T01:35:12;65.03;;;40.27;;
18612;SDS011;9436;52.152;21.032;2023-03-01T01:37:39;60.50;;;38.13;;
18612;SDS011;9436;52.152;21.032;2023-03-01T01:40:08;63.50;;;38.53;;
18612;SDS011;9436;52.152;21.032;2023-03-01T01:42:36;61.10;;;38.27;;
18612;SDS011;9436;52.152;21.032;2023-03-01T01:47:57;61.23;;;38.13;;
18612;SDS011;9436;52.152;21.032;2023-03-01T01:50:27;61.77;;;40.07;;
18612;SDS011;9436;52.152;21.032;2023-03-01T01:53:02;64.93;;;39.00;;
18612;SDS011;9436;52.152;21.032;2023-03-01T01:55:31;61.80;;;38.80;;
18612;SDS011;9436;52.152;21.032;2023-03-01T01:57:59;66.07;;;39.83;;
18612;SDS011;9436;52.152;21.032;2023-03-01T02:00:32;63.03;;;38.60;;
18612;SDS011;9436;52.152;21.032;2023-03-01T02:02:59;60.83;;;38.27;;
18612;SDS011;9436;52.152;21.032;2023-03-01T02:05:32;59.30;;;37.13;;
18612;SDS011;9436;52.152;21.032;2023-03-01T02:08:03;64.63;;;38.83;;
18612;SDS011;9436;52.152;21.032;2023-03-01T02:10:31;60.13;;;36.80;;
18612;SDS011;9436;52.152;21.032;2023-03-01T02:13:00;59.23;;;37.97;;
18612;SDS011;9436;52.152;21.032;2023-03-01T02:15:32;64.60;;;35.93;;
18612;SDS011;9436;52.152;21.032;2023-03-01T02:18:00;60.30;;;36.17;;
18612;SDS011;9436;52.152;21.032;2023-03-01T02:20:29;60.83;;;35.20;;
18612;SDS011;9436;52.152;21.032;2023-03-01T02:23:01;60.40;;;36.10;;
18612;SDS011;9436;52.152;21.032;2023-03-01T02:25:33;61.67;;;37.50;;
18612;SDS011;9436;52.152;21.032;2023-03-01T02:28:08;54.53;;;34.43;;
18612;SDS011;9436;52.152;21.032;2023-03-01T02:30:47;59.53;;;36.17;;
18612;SDS011;9436;52.152;21.032;2023-03-01T02:33:29;62.60;;;37.67;;
18612;SDS011;9436;52.152;21.032;2023-03-01T02:35:58;57.50;;;35.73;;
18612;SDS011;9436;52.152;21.032;2023-03-01T02:38:28;61.97;;;37.50;;
18612;SDS011;9436;52.152;21.032;2023-03-01T02:40:56;58.70;;;36.37;;
18612;SDS011;9436;52.152;21.032;2023-03-01T02:43:25;59.00;;;36.40;;
18612;SDS011;9436;52.152;21.032;2023-03-01T02:45:57;57.93;;;35.97;;
18612;SDS011;9436;52.152;21.032;2023-03-01T02:48:25;62.10;;;37.83;;
18612;SDS011;9436;52.152;21.032;2023-03-01T02:50:57;63.80;;;35.97;;
18612;SDS011;9436;52.152;21.032;2023-03-01T02:53:34;58.60;;;36.57;;
18612;SDS011;9436;52.152;21.032;2023-03-01T02:56:05;56.83;;;33.97;;
18612;SDS011;9436;52.152;21.032;2023-03-01T02:58:39;55.77;;;36.20;;
18612;SDS011;9436;52.152;21.032;2023-03-01T03:01:10;54.90;;;35.17;;
18612;SDS011;9436;52.152;21.032;2023-03-01T03:03:38;62.07;;;37.00;;
18612;SDS011;9436;52.152;21.032;2023-03-01T03:06:06;56.57;;;36.17;;
18612;SDS011;9436;52.152;21.032;2023-03-01T03:08:33;64.50;;;37.10;;
18612;SDS011;9436;52.152;21.032;2023-03-01T03:11:00;59.37;;;34.90;;
18612;SDS011;9436;52.152;21.032;2023-03-01T03:13:27;60.60;;;36.43;;
18612;SDS011;9436;52.152;21.032;2023-03-01T03:15:56;57.40;;;36.30;;
18612;SDS011;9436;52.152;21.032;2023-03-01T03:18:24;57.23;;;36.17;;
18612;SDS011;9436;52.152;21.032;2023-03-01T03:20:51;60.57;;;36.20;;
18612;SDS011;9436;52.152;21.032;2023-03-01T03:23:19;57.90;;;36.27;;
18612;SDS011;9436;52.152;21.032;2023-03-01T03:25:48;57.47;;;35.07;;
18612;SDS011;9436;52.152;21.032;2023-03-01T03:28:15;58.10;;;35.67;;
18612;SDS011;9436;52.152;21.032;2023-03-01T03:30:43;56.70;;;34.60;;
18612;SDS011;9436;52.152;21.032;2023-03-01T03:33:13;56.87;;;35.00;;
18612;SDS011;9436;52.152;21.032;2023-03-01T03:35:41;59.47;;;35.80;;
18612;SDS011;9436;52.152;21.032;2023-03-01T03:38:10;59.40;;;35.27;;
18612;SDS011;9436;52.152;21.032;2023-03-01T03:40:42;54.57;;;34.63;;
18612;SDS011;9436;52.152;21.032;2023-03-01T03:43:11;56.57;;;35.03;;
18612;SDS011;9436;52.152;21.032;2023-03-01T03:45:40;56.10;;;35.23;;
18612;SDS011;9436;52.152;21.032;2023-03-01T03:48:08;57.90;;;36.37;;
18612;SDS011;9436;52.152;21.032;2023-03-01T03:50:37;58.10;;;35.20;;
18612;SDS011;9436;52.152;21.032;2023-03-01T03:53:06;57.30;;;34.20;;
18612;SDS011;9436;52.152;21.032;2023-03-01T03:55:34;57.93;;;35.33;;
18612;SDS011;9436;52.152;21.032;2023-03-01T03:58:04;57.73;;;35.10;;
18612;SDS011;9436;52.152;21.032;2023-03-01T04:00:33;57.17;;;35.20;;
18612;SDS011;9436;52.152;21.032;2023-03-01T04:03:01;54.53;;;33.60;;
18612;SDS011;9436;52.152;21.032;2023-03-01T04:05:28;53.50;;;34.17;;
18612;SDS011;9436;52.152;21.032;2023-03-01T04:07:57;58.13;;;35.27;;
18612;SDS011;9436;52.152;21.032;2023-03-01T04:10:27;55.13;;;34.80;;
18612;SDS011;9436;52.152;21.032;2023-03-01T04:12:55;53.60;;;34.27;;
18612;SDS011;9436;52.152;21.032;2023-03-01T04:15:23;55.40;;;38.17;;
18612;SDS011;9436;52.152;21.032;2023-03-01T04:17:50;54.83;;;33.60;;
18612;SDS011;9436;52.152;21.032;2023-03-01T04:20:19;54.10;;;34.83;;
18612;SDS011;9436;52.152;21.032;2023-03-01T04:22:50;55.03;;;34.63;;
18612;SDS011;9436;52.152;21.032;2023-03-01T04:25:19;47.03;;;31.60;;
18612;SDS011;9436;52.152;21.032;2023-03-01T04:27:46;57.63;;;34.87;;
18612;SDS011;9436;52.152;21.032;2023-03-01T04:30:14;58.60;;;35.60;;
18612;SDS011;9436;52.152;21.032;2023-03-01T04:32:41;53.50;;;33.70;;
18612;SDS011;9436;52.152;21.032;2023-03-01T04:35:08;51.97;;;34.37;;
18612;SDS011;9436;52.152;21.032;2023-03-01T04:37:35;57.87;;;34.93;;
18612;SDS011;9436;52.152;21.032;2023-03-01T04:40:03;55.60;;;35.03;;
18612;SDS011;9436;52.152;21.032;2023-03-01T04:42:39;56.70;;;33.70;;
18612;SDS011;9436;52.152;21.032;2023-03-01T04:45:07;53.07;;;33.00;;
18612;SDS011;9436;52.152;21.032;2023-03-01T04:47:38;52.97;;;33.13;;
18612;SDS011;9436;52.152;21.032;2023-03-01T04:50:06;54.57;;;34.20;;
18612;SDS011;9436;52.152;21.032;2023-03-01T04:52:34;54.47;;;33.50;;
18612;SDS011;9436;52.152;21.032;2023-03-01T04:55:01;55.37;;;34.33;;
18612;SDS011;9436;52.152;21.032;2023-03-01T04:57:29;55.67;;;33.00;;
18612;SDS011;9436;52.152;21.032;2023-03-01T04:59:58;53.67;;;33.80;;
18612;SDS011;9436;52.152;21.032;2023-03-01T05:02:25;56.03;;;34.33;;
18612;SDS011;9436;52.152;21.032;2023-03-01T05:04:53;54.00;;;33.90;;
18612;SDS011;9436;52.152;21.032;2023-03-01T05:07:22;54.47;;;33.57;;
18612;SDS011;9436;52.152;21.032;2023-03-01T05:09:51;53.40;;;32.83;;
18612;SDS011;9436;52.152;21.032;2023-03-01T05:12:19;53.73;;;33.40;;
18612;SDS011;9436;52.152;21.032;2023-03-01T05:14:46;51.63;;;32.43;;
18612;SDS011;9436;52.152;21.032;2023-03-01T05:17:14;50.73;;;32.47;;
18612;SDS011;9436;52.152;21.032;2023-03-01T05:19:42;53.87;;;32.63;;
18612;SDS011;9436;52.152;21.032;2023-03-01T05:22:09;53.80;;;32.27;;
18612;SDS011;9436;52.152;21.032;2023-03-01T05:24:36;57.70;;;32.93;;
18612;SDS011;9436;52.152;21.032;2023-03-01T05:27:04;52.03;;;32.07;;
18612;SDS011;9436;52.152;21.032;2023-03-01T05:29:31;48.43;;;30.47;;
18612;SDS011;9436;52.152;21.032;2023-03-01T05:32:00;51.97;;;32.37;;
18612;SDS011;9436;52.152;21.032;2023-03-01T05:34:31;49.77;;;31.63;;
18612;SDS011;9436;52.152;21.032;2023-03-01T05:37:00;52.00;;;31.40;;
18612;SDS011;9436;52.152;21.032;2023-03-01T05:39:29;48.53;;;30.90;;
18612;SDS011;9436;52.152;21.032;2023-03-01T05:41:57;49.63;;;30.03;;
18612;SDS011;9436;52.152;21.032;2023-03-01T05:44:26;50.53;;;31.20;;
18612;SDS011;9436;52.152;21.032;2023-03-01T05:46:54;46.67;;;30.17;;
18612;SDS011;9436;52.152;21.032;2023-03-01T05:49:22;50.93;;;31.07;;
18612;SDS011;9436;52.152;21.032;2023-03-01T05:51:51;50.27;;;29.73;;
18612;SDS011;9436;52.152;21.032;2023-03-01T05:54:19;48.57;;;30.17;;
18612;SDS011;9436;52.152;21.032;2023-03-01T05:56:47;52.47;;;31.10;;
18612;SDS011;9436;52.152;21.032;2023-03-01T05:59:15;45.87;;;30.30;;
18612;SDS011;9436;52.152;21.032;2023-03-01T06:01:42;52.17;;;31.23;;
18612;SDS011;9436;52.152;21.032;2023-03-01T06:04:09;49.10;;;30.50;;
18612;SDS011;9436;52.152;21.032;2023-03-01T06:06:36;53.40;;;30.80;;
18612;SDS011;9436;52.152;21.032;2023-03-01T06:09:06;46.80;;;30.70;;
18612;SDS011;9436;52.152;21.032;2023-03-01T06:11:35;46.50;;;28.90;;
18612;SDS011;9436;52.152;21.032;2023-03-01T06:14:02;49.73;;;30.43;;
18612;SDS011;9436;52.152;21.032;2023-03-01T06:16:29;48.60;;;30.10;;
18612;SDS011;9436;52.152;21.032;2023-03-01T06:18:56;48.03;;;30.10;;
18612;SDS011;9436;52.152;21.032;2023-03-01T06:21:24;49.10;;;31.20;;
18612;SDS011;9436;52.152;21.032;2023-03-01T06:23:51;52.73;;;32.10;;
18612;SDS011;9436;52.152;21.032;2023-03-01T06:26:19;52.77;;;32.37;;
18612;SDS011;9436;52.152;21.032;2023-03-01T06:28:46;48.57;;;29.43;;
18612;SDS011;9436;52.152;21.032;2023-03-01T06:31:13;49.13;;;29.00;;
18612;SDS011;9436;52.152;21.032;2023-03-01T06:33:40;51.87;;;31.33;;
18612;SDS011;9436;52.152;21.032;2023-03-01T06:36:09;52.00;;;31.17;;
18612;SDS011;9436;52.152;21.032;2023-03-01T06:38:37;45.93;;;30.30;;
18612;SDS011;9436;52.152;21.032;2023-03-01T06:41:05;48.97;;;30.47;;
18612;SDS011;9436;52.152;21.032;2023-03-01T06:43:34;46.90;;;30.70;;
18612;SDS011;9436;52.152;21.032;2023-03-01T06:46:03;44.27;;;29.33;;
18612;SDS011;9436;52.152;21.032;2023-03-01T06:48:31;48.50;;;30.73;;
18612;SDS011;9436;52.152;21.032;2023-03-01T06:50:59;46.10;;;29.17;;
18612;SDS011;9436;52.152;21.032;2023-03-01T06:53:26;48.00;;;30.40;;
18612;SDS011;9436;52.152;21.032;2023-03-01T06:55:54;47.57;;;30.57;;
18612;SDS011;9436;52.152;21.032;2023-03-01T06:58:21;46.17;;;30.80;;
18612;SDS011;9436;52.152;21.032;2023-03-01T07:00:50;43.10;;;28.53;;
18612;SDS011;9436;52.152;21.032;2023-03-01T07:03:17;45.70;;;29.57;;
18612;SDS011;9436;52.152;21.032;2023-03-01T07:05:45;49.37;;;31.23;;
18612;SDS011;9436;52.152;21.032;2023-03-01T07:08:14;44.07;;;28.70;;
18612;SDS011;9436;52.152;21.032;2023-03-01T07:10:41;45.57;;;27.53;;
18612;SDS011;9436;52.152;21.032;2023-03-01T07:13:09;40.07;;;26.40;;
18612;SDS011;9436;52.152;21.032;2023-03-01T07:15:36;44.73;;;29.03;;
18612;SDS011;9436;52.152;21.032;2023-03-01T07:18:04;44.37;;;29.40;;
18612;SDS011;9436;52.152;21.032;2023-03-01T07:20:31;42.80;;;27.63;;
18612;SDS011;9436;52.152;21.032;2023-03-01T07:22:58;39.93;;;28.17;;
18612;SDS011;9436;52.152;21.032;2023-03-01T07:25:25;45.73;;;29.40;;
18612;SDS011;9436;52.152;21.032;2023-03-01T07:27:52;46.07;;;28.83;;
18612;SDS011;9436;52.152;21.032;2023-03-01T07:30:20;45.27;;;29.00;;
18612;SDS011;9436;52.152;21.032;2023-03-01T07:32:47;46.70;;;28.73;;
18612;SDS011;9436;52.152;21.032;2023-03-01T07:35:16;44.83;;;28.83;;
18612;SDS011;9436;52.152;21.032;2023-03-01T07:37:43;41.70;;;28.20;;
18612;SDS011;9436;52.152;21.032;2023-03-01T07:40:10;41.87;;;28.60;;
18612;SDS011;9436;52.152;21.032;2023-03-01T07:42:38;44.67;;;28.40;;
18612;SDS011;9436;52.152;21.032;2023-03-01T07:45:06;40.53;;;28.93;;
18612;SDS011;9436;52.152;21.032;2023-03-01T07:47:33;43.37;;;28.53;;
18612;SDS011;9436;52.152;21.032;2023-03-01T07:50:00;44.70;;;28.50;;
18612;SDS011;9436;52.152;21.032;2023-03-01T07:52:29;46.13;;;29.03;;
18612;SDS011;9436;52.152;21.032;2023-03-01T07:54:56;40.33;;;27.90;;
18612;SDS011;9436;52.152;21.032;2023-03-01T07:57:24;40.60;;;26.73;;
18612;SDS011;9436;52.152;21.032;2023-03-01T07:59:51;43.17;;;27.73;;
18612;SDS011;9436;52.152;21.032;2023-03-01T08:02:18;46.10;;;29.40;;
18612;SDS011;9436;52.152;21.032;2023-03-01T08:04:45;42.97;;;28.87;;
18612;SDS011;9436;52.152;21.032;2023-03-01T08:07:12;39.13;;;26.87;;
18612;SDS011;9436;52.152;21.032;2023-03-01T08:09:41;41.30;;;26.93;;
18612;SDS011;9436;52.152;21.032;2023-03-01T08:12:08;40.50;;;26.97;;
18612;SDS011;9436;52.152;21.032;2023-03-01T08:14:35;44.70;;;27.10;;
18612;SDS011;9436;52.152;21.032;2023-03-01T08:17:02;43.93;;;26.50;;
18612;SDS011;9436;52.152;21.032;2023-03-01T08:19:29;40.77;;;26.30;;
18612;SDS011;9436;52.152;21.032;2023-03-01T08:21:56;37.80;;;25.93;;
18612;SDS011;9436;52.152;21.032;2023-03-01T08:24:25;35.77;;;24.87;;
18612;SDS011;9436;52.152;21.032;2023-03-01T08:26:53;36.43;;;24.67;;
18612;SDS011;9436;52.152;21.032;2023-03-01T08:29:21;35.87;;;25.33;;
18612;SDS011;9436;52.152;21.032;2023-03-01T08:31:48;39.97;;;24.97;;
18612;SDS011;9436;52.152;21.032;2023-03-01T08:34:16;33.77;;;23.43;;
18612;SDS011;9436;52.152;21.032;2023-03-01T08:36:44;32.13;;;22.20;;
18612;SDS011;9436;52.152;21.032;2023-03-01T08:39:13;31.83;;;22.17;;
18612;SDS011;9436;52.152;21.032;2023-03-01T08:41:41;30.73;;;21.77;;
18612;SDS011;9436;52.152;21.032;2023-03-01T08:44:10;31.83;;;22.53;;
18612;SDS011;9436;52.152;21.032;2023-03-01T08:46:39;34.30;;;22.73;;
18612;SDS011;9436;52.152;21.032;2023-03-01T08:49:08;31.97;;;22.23;;
18612;SDS011;9436;52.152;21.032;2023-03-01T08:51:37;28.07;;;17.93;;
18612;SDS011;9436;52.152;21.032;2023-03-01T08:54:05;24.30;;;17.30;;
18612;SDS011;9436;52.152;21.032;2023-03-01T08:56:33;23.93;;;17.47;;
18612;SDS011;9436;52.152;21.032;2023-03-01T08:59:00;28.43;;;19.87;;
18612;SDS011;9436;52.152;21.032;2023-03-01T09:01:28;29.33;;;20.10;;
18612;SDS011;9436;52.152;21.032;2023-03-01T09:03:55;27.73;;;18.90;;
18612;SDS011;9436;52.152;21.032;2023-03-01T09:06:22;28.90;;;19.20;;
18612;SDS011;9436;52.152;21.032;2023-03-01T09:08:50;28.33;;;18.83;;
18612;SDS011;9436;52.152;21.032;2023-03-01T09:11:18;28.73;;;19.87;;
18612;SDS011;9436;52.152;21.032;2023-03-01T09:13:46;37.40;;;20.53;;
18612;SDS011;9436;52.152;21.032;2023-03-01T09:16:15;29.87;;;19.97;;
18612;SDS011;9436;52.152;21.032;2023-03-01T09:18:44;27.40;;;19.90;;
18612;SDS011;9436;52.152;21.032;2023-03-01T09:21:15;27.87;;;19.67;;
18612;SDS011;9436;52.152;21.032;2023-03-01T09:23:44;33.97;;;20.77;;
18612;SDS011;9436;52.152;21.032;2023-03-01T09:26:12;30.07;;;18.37;;
18612;SDS011;9436;52.152;21.032;2023-03-01T09:28:42;27.07;;;19.13;;
18612;SDS011;9436;52.152;21.032;2023-03-01T09:31:10;26.87;;;17.53;;
18612;SDS011;9436;52.152;21.032;2023-03-01T09:33:38;29.60;;;19.80;;
18612;SDS011;9436;52.152;21.032;2023-03-01T09:36:10;24.23;;;17.07;;
18612;SDS011;9436;52.152;21.032;2023-03-01T09:38:39;28.47;;;18.27;;
18612;SDS011;9436;52.152;21.032;2023-03-01T09:41:09;24.93;;;17.80;;
18612;SDS011;9436;52.152;21.032;2023-03-01T09:43:46;27.80;;;18.93;;
18612;SDS011;9436;52.152;21.032;2023-03-01T09:46:19;30.47;;;19.47;;
18612;SDS011;9436;52.152;21.032;2023-03-01T09:48:49;29.47;;;19.33;;
18612;SDS011;9436;52.152;21.032;2023-03-01T09:51:22;27.67;;;18.80;;
18612;SDS011;9436;52.152;21.032;2023-03-01T09:53:53;27.57;;;19.40;;
18612;SDS011;9436;52.152;21.032;2023-03-01T09:56:23;25.40;;;18.47;;
18612;SDS011;9436;52.152;21.032;2023-03-01T09:58:57;27.27;;;18.63;;
18612;SDS011;9436;52.152;21.032;2023-03-01T10:01:31;21.87;;;16.77;;
18612;SDS011;9436;52.152;21.032;2023-03-01T10:04:20;25.93;;;18.23;;
18612;SDS011;9436;52.152;21.032;2023-03-01T10:07:02;24.03;;;16.23;;
18612;SDS011;9436;52.152;21.032;2023-03-01T10:09:43;23.07;;;16.63;;
18612;SDS011;9436;52.152;21.032;2023-03-01T10:12:12;23.77;;;17.17;;
18612;SDS011;9436;52.152;21.032;2023-03-01T10:14:43;24.40;;;17.43;;
18612;SDS011;9436;52.152;21.032;2023-03-01T10:17:19;24.80;;;17.97;;
18612;SDS011;9436;52.152;21.032;2023-03-01T10:19:57;29.77;;;14.63;;
18612;SDS011;9436;52.152;21.032;2023-03-01T10:22:42;24.00;;;15.57;;
18612;SDS011;9436;52.152;21.032;2023-03-01T10:25:12;21.93;;;14.43;;
18612;SDS011;9436;52.152;21.032;2023-03-01T10:27:42;21.20;;;14.47;;
18612;SDS011;9436;52.152;21.032;2023-03-01T10:30:19;22.43;;;16.97;;
18612;SDS011;9436;52.152;21.032;2023-03-01T10:32:49;20.40;;;15.13;;
18612;SDS011;9436;52.152;21.032;2023-03-01T10:35:20;24.13;;;16.00;;
18612;SDS011;9436;52.152;21.032;2023-03-01T10:38:02;25.77;;;15.83;;
18612;SDS011;9436;52.152;21.032;2023-03-01T10:40:30;26.60;;;18.63;;
18612;SDS011;9436;52.152;21.032;2023-03-01T10:42:58;28.87;;;18.80;;
18612;SDS011;9436;52.152;21.032;2023-03-01T10:45:31;24.50;;;17.37;;
18612;SDS011;9436;52.152;21.032;2023-03-01T10:48:05;25.47;;;16.70;;
18612;SDS011;9436;52.152;21.032;2023-03-01T10:50:38;26.03;;;16.53;;
18612;SDS011;9436;52.152;21.032;2023-03-01T10:53:16;26.80;;;17.80;;
18612;SDS011;9436;52.152;21.032;2023-03-01T10:55:56;22.83;;;15.40;;
18612;SDS011;9436;52.152;21.032;2023-03-01T10:58:24;25.23;;;16.83;;
18612;SDS011;9436;52.152;21.032;2023-03-01T11:00:52;21.37;;;16.23;;
18612;SDS011;9436;52.152;21.032;2023-03-01T11:03:23;22.37;;;15.77;;
18612;SDS011;9436;52.152;21.032;2023-03-01T11:05:53;23.47;;;16.17;;
18612;SDS011;9436;52.152;21.032;2023-03-01T11:08:31;21.77;;;16.27;;
18612;SDS011;9436;52.152;21.032;2023-03-01T11:11:07;21.80;;;17.00;;
18612;SDS011;9436;52.152;21.032;2023-03-01T11:13:53;19.17;;;15.57;;
18612;SDS011;9436;52.152;21.032;2023-03-01T11:16:23;21.17;;;15.00;;
18612;SDS011;9436;52.152;21.032;2023-03-01T11:19:14;21.33;;;14.93;;
18612;SDS011;9436;52.152;21.032;2023-03-01T11:21:47;19.83;;;14.27;;
18612;SDS011;9436;52.152;21.032;2023-03-01T11:24:22;17.53;;;13.40;;
18612;SDS011;9436;52.152;21.032;2023-03-01T11:26:55;17.47;;;13.40;;
18612;SDS011;9436;52.152;21.032;2023-03-01T11:29:26;15.07;;;11.63;;
18612;SDS011;9436;52.152;21.032;2023-03-01T11:31:58;19.90;;;13.53;;
18612;SDS011;9436;52.152;21.032;2023-03-01T11:34:33;17.67;;;12.30;;
18612;SDS011;9436;52.152;21.032;2023-03-01T11:37:09;15.23;;;11.30;;
18612;SDS011;9436;52.152;21.032;2023-03-01T11:39:46;18.87;;;12.33;;
18612;SDS011;9436;52.152;21.032;2023-03-01T11:42:20;17.93;;;11.87;;
18612;SDS011;9436;52.152;21.032;2023-03-01T11:44:59;15.87;;;12.07;;
18612;SDS011;9436;52.152;21.032;2023-03-01T11:47:38;16.90;;;12.50;;
18612;SDS011;9436;52.152;21.032;2023-03-01T11:50:26;18.17;;;12.47;;
18612;SDS011;9436;52.152;21.032;2023-03-01T11:53:04;17.00;;;12.30;;
18612;SDS011;9436;52.152;21.032;2023-03-01T11:58:45;16.00;;;12.10;;
18612;SDS011;9436;52.152;21.032;2023-03-01T12:01:37;17.87;;;12.83;;
18612;SDS011;9436;52.152;21.032;2023-03-01T12:04:22;15.57;;;12.13;;
18612;SDS011;9436;52.152;21.032;2023-03-01T12:07:03;15.97;;;11.40;;
18612;SDS011;9436;52.152;21.032;2023-03-01T12:09:41;14.23;;;11.53;;
18612;SDS011;9436;52.152;21.032;2023-03-01T12:12:27;15.73;;;11.30;;
18612;SDS011;9436;52.152;21.032;2023-03-01T12:15:07;15.03;;;11.87;;
18612;SDS011;9436;52.152;21.032;2023-03-01T12:20:46;16.17;;;11.87;;
18612;SDS011;9436;52.152;21.032;2023-03-01T12:23:37;18.20;;;11.87;;
18612;SDS011;9436;52.152;21.032;2023-03-01T12:26:31;17.77;;;11.80;;
18612;SDS011;9436;52.152;21.032;2023-03-01T12:32:00;17.27;;;11.30;;
18612;SDS011;9436;52.152;21.032;2023-03-01T12:34:39;13.97;;;10.93;;
18612;SDS011;9436;52.152;21.032;2023-03-01T12:37:22;15.33;;;11.10;;
18612;SDS011;9436;52.152;21.032;2023-03-01T12:40:03;15.30;;;11.87;;
18612;SDS011;9436;52.152;21.032;2023-03-01T12:42:52;17.90;;;12.43;;
18612;SDS011;9436;52.152;21.032;2023-03-01T12:45:43;15.87;;;11.23;;
18612;SDS011;9436;52.152;21.032;2023-03-01T12:48:25;15.03;;;10.50;;
18612;SDS011;9436;52.152;21.032;2023-03-01T12:51:03;17.40;;;11.87;;
18612;SDS011;9436;52.152;21.032;2023-03-01T12:53:36;18.40;;;12.73;;
18612;SDS011;9436;52.152;21.032;2023-03-01T12:56:07;15.10;;;11.57;;
18612;SDS011;9436;52.152;21.032;2023-03-01T12:58:39;17.83;;;12.07;;
18612;SDS011;9436;52.152;21.032;2023-03-01T13:01:21;16.70;;;11.40;;
18612;SDS011;9436;52.152;21.032;2023-03-01T13:04:03;18.40;;;12.37;;
18612;SDS011;9436;52.152;21.032;2023-03-01T13:06:40;18.37;;;12.73;;
18612;SDS011;9436;52.152;21.032;2023-03-01T13:09:15;15.73;;;11.60;;
18612;SDS011;9436;52.152;21.032;2023-03-01T13:11:50;19.00;;;11.70;;
18612;SDS011;9436;52.152;21.032;2023-03-01T13:17:32;14.27;;;10.83;;
18612;SDS011;9436;52.152;21.032;2023-03-01T13:20:12;16.67;;;11.87;;
18612;SDS011;9436;52.152;21.032;2023-03-01T13:22:42;15.33;;;11.90;;
18612;SDS011;9436;52.152;21.032;2023-03-01T13:25:13;15.87;;;12.20;;
18612;SDS011;9436;52.152;21.032;2023-03-01T13:27:43;16.47;;;12.53;;
18612;SDS011;9436;52.152;21.032;2023-03-01T13:39:27;16.53;;;11.40;;
18612;SDS011;9436;52.152;21.032;2023-03-01T13:41:58;16.70;;;11.70;;
18612;SDS011;9436;52.152;21.032;2023-03-01T13:44:26;13.50;;;11.50;;
18612;SDS011;9436;52.152;21.032;2023-03-01T13:46:59;15.77;;;12.17;;
18612;SDS011;9436;52.152;21.032;2023-03-01T13:49:36;15.67;;;11.73;;
18612;SDS011;9436;52.152;21.032;2023-03-01T13:52:15;17.00;;;12.27;;
18612;SDS011;9436;52.152;21.032;2023-03-01T13:55:06;15.57;;;11.77;;
18612;SDS011;9436;52.152;21.032;2023-03-01T13:57:43;18.97;;;12.57;;
18612;SDS011;9436;52.152;21.032;2023-03-01T14:00:25;18.80;;;12.50;;
18612;SDS011;9436;52.152;21.032;2023-03-01T14:03:09;16.63;;;12.03;;
18612;SDS011;9436;52.152;21.032;2023-03-01T14:05:40;16.77;;;12.57;;
18612;SDS011;9436;52.152;21.032;2023-03-01T14:08:19;17.27;;;12.67;;
18612;SDS011;9436;52.152;21.032;2023-03-01T14:11:00;17.87;;;13.67;;
18612;SDS011;9436;52.152;21.032;2023-03-01T14:13:48;18.03;;;12.80;;
18612;SDS011;9436;52.152;21.032;2023-03-01T14:16:28;18.37;;;13.17;;
18612;SDS011;9436;52.152;21.032;2023-03-01T14:19:05;17.10;;;11.53;;
18612;SDS011;9436;52.152;21.032;2023-03-01T14:21:42;18.10;;;12.37;;
18612;SDS011;9436;52.152;21.032;2023-03-01T14:24:15;16.37;;;12.60;;
18612;SDS011;9436;52.152;21.032;2023-03-01T14:26:44;17.73;;;12.87;;
18612;SDS011;9436;52.152;21.032;2023-03-01T14:29:25;15.37;;;12.33;;
18612;SDS011;9436;52.152;21.032;2023-03-01T14:31:55;14.83;;;12.73;;
18612;SDS011;9436;52.152;21.032;2023-03-01T14:34:35;18.20;;;13.67;;
18612;SDS011;9436;52.152;21.032;2023-03-01T14:37:17;14.97;;;11.83;;
18612;SDS011;9436;52.152;21.032;2023-03-01T14:39:47;18.53;;;13.60;;
18612;SDS011;9436;52.152;21.032;2023-03-01T14:42:14;20.80;;;12.63;;
18612;SDS011;9436;52.152;21.032;2023-03-01T14:44:42;17.60;;;12.67;;
18612;SDS011;9436;52.152;21.032;2023-03-01T14:47:11;17.00;;;12.53;;
18612;SDS011;9436;52.152;21.032;2023-03-01T14:49:41;20.83;;;11.70;;
18612;SDS011;9436;52.152;21.032;2023-03-01T14:52:17;19.43;;;12.77;;
18612;SDS011;9436;52.152;21.032;2023-03-01T14:54:47;18.63;;;12.97;;
18612;SDS011;9436;52.152;21.032;2023-03-01T14:57:17;17.93;;;11.90;;
18612;SDS011;9436;52.152;21.032;2023-03-01T14:59:47;19.13;;;12.90;;
18612;SDS011;9436;52.152;21.032;2023-03-01T15:02:16;18.10;;;13.90;;
18612;SDS011;9436;52.152;21.032;2023-03-01T15:04:46;20.57;;;14.00;;
18612;SDS011;9436;52.152;21.032;2023-03-01T15:07:16;19.10;;;13.07;;